createdAt,value
2019-04-20T00:01:52.586Z,6.92
2019-04-20T00:04:28.729Z,7.80
2019-04-20T00:06:56.475Z,8.23
2019-04-20T00:09:31.069Z,7.95
2019-04-20T00:12:07.132Z,6.95
2019-04-20T00:14:33.790Z,7.95
2019-04-20T00:17:03.021Z,8.05
2019-04-20T00:19:40.029Z,8.60
2019-04-20T00:22:15.163Z,8.28
2019-04-20T00:24:59.393Z,8.20
2019-04-20T00:27:50.224Z,7.85
2019-04-20T00:30:15.642Z,7.67
2019-04-20T00:32:46.623Z,8.15
2019-04-20T00:35:02.199Z,6.95
2019-04-20T00:37:33.835Z,5.50
2019-04-20T00:40:05.730Z,6.28
2019-04-20T00:42:43.625Z,7.30
2019-04-20T00:45:12.867Z,6.58
2019-04-20T00:47:47.820Z,6.58
2019-04-20T00:50:29.787Z,6.42
2019-04-20T00:53:02.181Z,6.40
2019-04-20T00:55:16.996Z,6.55
2019-04-20T00:57:53.445Z,7.40
2019-04-20T01:00:39.752Z,6.97
2019-04-20T01:03:09.835Z,6.62
2019-04-20T01:05:58.195Z,7.00
2019-04-20T01:08:21.716Z,6.30
2019-04-20T01:10:55.733Z,7.20
2019-04-20T01:13:25.212Z,8.23
2019-04-20T01:16:05.036Z,10.90
2019-04-20T01:18:27.024Z,18.37
2019-04-20T01:21:04.663Z,17.70
2019-04-20T01:23:37.767Z,16.77
2019-04-20T01:26:06.074Z,11.90
2019-04-20T01:28:46.377Z,9.30
2019-04-20T01:31:17.728Z,9.15
2019-04-20T01:33:48.431Z,7.05
2019-04-20T01:36:25.441Z,6.95
2019-04-20T01:38:56.777Z,7.40
2019-04-20T01:41:12.351Z,6.78
2019-04-20T01:43:43.583Z,7.33
2019-04-20T01:46:17.114Z,7.53
2019-04-20T01:48:46.298Z,7.25
2019-04-20T01:51:21.176Z,7.47
2019-04-20T01:54:06.337Z,7.65
2019-04-20T01:56:36.120Z,7.40
2019-04-20T01:59:16.147Z,11.20
2019-04-20T02:01:37.473Z,12.93
2019-04-20T02:04:11.958Z,12.05
2019-04-20T02:06:48.095Z,11.60
2019-04-20T02:09:15.709Z,13.05
2019-04-20T02:11:47.379Z,13.65
2019-04-20T02:14:24.194Z,12.88
2019-04-20T02:16:52.752Z,11.50
2019-04-20T02:19:34.629Z,11.93
2019-04-20T02:22:02.634Z,12.82
2019-04-20T02:24:23.712Z,16.37
2019-04-20T02:26:54.065Z,19.67
2019-04-20T02:29:47.430Z,14.63
2019-04-20T02:32:23.771Z,12.55
2019-04-20T02:35:01.479Z,12.28
2019-04-20T02:40:12.392Z,13.70
2019-04-20T02:42:46.710Z,12.53
2019-04-20T02:45:18.708Z,11.80
2019-04-20T02:50:15.174Z,11.70
2019-04-20T02:53:06.175Z,11.57
2019-04-20T02:55:15.318Z,10.82
2019-04-20T02:57:55.551Z,11.95
2019-04-20T03:02:36.233Z,10.85
2019-04-20T03:05:06.934Z,12.43
2019-04-20T03:07:41.115Z,11.15
2019-04-20T03:10:10.830Z,12.65
2019-04-20T03:12:53.697Z,12.07
2019-04-20T03:15:21.784Z,13.13
2019-04-20T03:17:51.140Z,15.60
2019-04-20T03:20:27.147Z,18.95
2019-04-20T03:25:53.410Z,17.90
2019-04-20T03:28:21.926Z,17.45
2019-04-20T03:33:53.712Z,13.25
2019-04-20T03:36:07.613Z,10.70
2019-04-20T03:38:30.215Z,9.98
2019-04-20T03:40:56.494Z,10.38
2019-04-20T03:43:13.837Z,10.23
2019-04-20T03:45:51.723Z,9.88
2019-04-20T03:48:34.698Z,9.65
2019-04-20T03:51:09.029Z,10.18
2019-04-20T03:56:34.866Z,8.55
2019-04-20T03:59:01.549Z,10.32
2019-04-20T04:02:04.565Z,13.55
2019-04-20T04:04:18.685Z,32.45
2019-04-20T04:06:36.043Z,26.87
2019-04-20T04:09:12.254Z,16.67
2019-04-20T04:11:43.491Z,20.40
2019-04-20T04:14:02.999Z,21.25
2019-04-20T04:16:40.950Z,16.80
2019-04-20T04:19:14.448Z,14.33
2019-04-20T04:21:53.918Z,14.70
2019-04-20T04:24:22.861Z,12.15
2019-04-20T04:26:56.045Z,12.60
2019-04-20T04:29:39.995Z,11.28
2019-04-20T04:32:14.149Z,10.25
2019-04-20T04:34:33.791Z,13.05
2019-04-20T04:37:14.961Z,11.65
2019-04-20T04:39:47.445Z,11.70
2019-04-20T04:42:16.694Z,9.90
2019-04-20T04:44:35.401Z,10.60
2019-04-20T04:47:00.215Z,11.48
2019-04-20T04:49:34.174Z,10.55
2019-04-20T04:52:05.409Z,11.65
2019-04-20T04:54:43.521Z,11.03
2019-04-20T04:57:03.367Z,9.93
2019-04-20T04:59:34.148Z,9.03
2019-04-20T05:02:05.338Z,9.50
2019-04-20T05:05:17.752Z,9.77
2019-04-20T05:07:39.794Z,10.95
2019-04-20T05:09:59.572Z,10.98
2019-04-20T05:12:32.182Z,10.30
2019-04-20T05:15:10.086Z,8.78
2019-04-20T05:17:50.087Z,8.75
2019-04-20T05:20:23.219Z,8.15
2019-04-20T05:23:01.229Z,6.60
2019-04-20T05:25:51.974Z,5.67
2019-04-20T05:28:32.520Z,5.17
2019-04-20T05:30:57.013Z,5.03
2019-04-20T05:33:40.497Z,4.10
2019-04-20T05:36:13.882Z,5.15
2019-04-20T05:38:50.182Z,5.22
2019-04-20T05:41:16.944Z,5.80
2019-04-20T05:43:56.555Z,5.17
2019-04-20T05:46:42.239Z,5.00
2019-04-20T05:49:05.291Z,4.90
2019-04-20T05:51:35.059Z,5.15
2019-04-20T05:54:07.248Z,5.15
2019-04-20T05:56:44.442Z,4.70
2019-04-20T05:59:07.635Z,5.28
2019-04-20T06:01:45.447Z,4.50
2019-04-20T06:04:10.427Z,4.20
2019-04-20T06:06:44.379Z,4.95
2019-04-20T06:09:15.637Z,3.62
2019-04-20T06:12:06.069Z,4.30
2019-04-20T06:14:10.167Z,5.03
2019-04-20T06:17:11.150Z,3.70
2019-04-20T06:19:39.458Z,3.75
2019-04-20T06:22:21.440Z,4.42
2019-04-20T06:25:16.739Z,4.45
2019-04-20T06:27:38.172Z,4.08
2019-04-20T06:32:59.258Z,3.55
2019-04-20T06:35:45.505Z,4.42
2019-04-20T06:38:10.618Z,4.33
2019-04-20T06:43:05.479Z,4.50
2019-04-20T06:45:49.251Z,3.95
2019-04-20T06:50:41.500Z,4.15
2019-04-20T06:53:30.318Z,3.58
2019-04-20T06:55:48.657Z,3.45
2019-04-20T06:58:36.403Z,3.42
2019-04-20T07:00:56.915Z,3.92
2019-04-20T07:03:35.892Z,4.15
2019-04-20T07:06:17.834Z,3.83
2019-04-20T07:08:45.097Z,2.77
2019-04-20T07:11:05.678Z,3.52
2019-04-20T07:13:22.055Z,2.80
2019-04-20T07:16:06.065Z,2.67
2019-04-20T07:19:01.173Z,2.87
2019-04-20T07:21:57.335Z,2.72
2019-04-20T07:24:19.592Z,4.10
2019-04-20T07:26:46.378Z,3.12
2019-04-20T07:29:16.014Z,3.12
2019-04-20T07:31:45.907Z,3.35
2019-04-20T07:34:18.709Z,2.80
2019-04-20T07:37:04.039Z,3.27
2019-04-20T07:39:24.249Z,2.92
2019-04-20T07:42:04.522Z,2.65
2019-04-20T07:44:36.273Z,2.90
2019-04-20T07:47:04.432Z,3.10
2019-04-20T07:49:29.023Z,3.47
2019-04-20T07:51:43.924Z,3.22
2019-04-20T07:54:44.725Z,3.40
2019-04-20T07:57:03.877Z,2.60
2019-04-20T07:59:27.508Z,2.92
2019-04-20T08:02:16.266Z,3.22
2019-04-20T08:04:46.256Z,2.92
2019-04-20T08:07:02.116Z,3.58
2019-04-20T08:09:39.368Z,3.00
2019-04-20T08:12:25.625Z,3.58
2019-04-20T08:15:04.703Z,2.92
2019-04-20T08:17:33.602Z,2.85
2019-04-20T08:19:58.100Z,2.58
2019-04-20T08:22:34.150Z,3.00
2019-04-20T08:24:55.251Z,3.45
2019-04-20T08:27:16.320Z,2.67
2019-04-20T08:30:01.858Z,3.08
2019-04-20T08:32:58.488Z,3.02
2019-04-20T08:35:46.320Z,2.95
2019-04-20T08:38:36.879Z,3.33
2019-04-20T08:40:44.156Z,2.80
2019-04-20T08:43:20.131Z,3.17
2019-04-20T08:45:49.029Z,3.08
2019-04-20T08:48:27.492Z,3.20
2019-04-20T08:50:50.645Z,2.80
2019-04-20T08:55:44.956Z,3.27
2019-04-20T08:58:04.518Z,3.77
2019-04-20T09:00:45.693Z,3.80
2019-04-20T09:03:12.935Z,3.47
2019-04-20T09:05:48.986Z,2.95
2019-04-20T09:08:17.884Z,2.87
2019-04-20T09:11:00.013Z,3.02
2019-04-20T09:13:24.465Z,3.50
2019-04-20T09:18:28.350Z,3.55
2019-04-20T09:21:00.437Z,3.00
2019-04-20T09:23:38.173Z,3.15
2019-04-20T09:26:16.248Z,6.17
2019-04-20T09:28:39.562Z,2.70
2019-04-20T09:31:22.696Z,4.45
2019-04-20T09:34:13.104Z,2.70
2019-04-20T09:36:46.135Z,2.83
2019-04-20T09:39:27.132Z,2.92
2019-04-20T09:42:00.883Z,3.17
2019-04-20T09:44:25.653Z,3.22
2019-04-20T09:46:59.197Z,3.17
2019-04-20T09:49:38.726Z,3.47
2019-04-20T09:52:13.424Z,3.65
2019-04-20T09:54:47.644Z,3.22
2019-04-20T09:57:21.765Z,2.85
2019-04-20T09:59:49.712Z,3.27
2019-04-20T10:02:10.241Z,2.87
2019-04-20T10:04:37.567Z,3.15
2019-04-20T10:07:12.771Z,3.20
2019-04-20T10:09:43.445Z,3.17
2019-04-20T10:12:11.288Z,3.35
2019-04-20T10:14:42.452Z,3.58
2019-04-20T10:17:13.746Z,4.08
2019-04-20T10:19:45.220Z,2.87
2019-04-20T10:22:15.745Z,3.35
2019-04-20T10:24:48.682Z,3.52
2019-04-20T10:27:18.763Z,3.42
2019-04-20T10:29:49.337Z,3.27
2019-04-20T10:32:19.780Z,3.02
2019-04-20T10:34:50.636Z,3.50
2019-04-20T10:37:23.895Z,3.47
2019-04-20T10:39:54.480Z,4.00
2019-04-20T10:42:25.963Z,4.20
2019-04-20T10:44:58.644Z,3.50
2019-04-20T10:47:29.273Z,3.85
2019-04-20T10:50:00.766Z,3.47
2019-04-20T10:52:32.393Z,3.60
2019-04-20T10:55:02.875Z,3.42
2019-04-20T10:57:33.466Z,3.08
2019-04-20T11:00:08.219Z,3.60
2019-04-20T11:02:39.591Z,3.72
2019-04-20T11:05:10.786Z,4.05
2019-04-20T11:07:42.090Z,2.95
2019-04-20T11:10:19.829Z,3.47
2019-04-20T11:12:44.277Z,3.08
2019-04-20T11:15:14.651Z,4.42
2019-04-20T11:17:45.777Z,5.80
2019-04-20T11:20:17.164Z,3.67
2019-04-20T11:22:48.499Z,3.02
2019-04-20T11:25:19.836Z,4.08
2019-04-20T11:27:50.300Z,5.30
2019-04-20T11:30:20.739Z,7.95
2019-04-20T11:32:51.942Z,3.00
2019-04-20T11:35:28.075Z,5.95
2019-04-20T11:37:55.341Z,5.55
2019-04-20T11:42:55.385Z,6.95
2019-04-20T11:45:26.727Z,4.83
2019-04-20T11:47:57.818Z,4.10
2019-04-20T11:50:29.343Z,4.28
2019-04-20T11:52:59.801Z,4.28
2019-04-20T11:55:30.708Z,4.25
2019-04-20T11:58:01.737Z,3.77
2019-04-20T12:00:43.169Z,3.70
2019-04-20T12:03:21.346Z,3.83
2019-04-20T12:05:47.854Z,3.75
2019-04-20T12:08:14.633Z,4.12
2019-04-20T12:10:50.246Z,3.98
2019-04-20T12:13:16.650Z,3.65
2019-04-20T12:15:47.700Z,3.55
2019-04-20T12:18:18.009Z,3.27
2019-04-20T12:20:48.157Z,4.55
2019-04-20T12:23:18.182Z,4.50
2019-04-20T12:25:48.376Z,3.30
2019-04-20T12:28:19.759Z,3.90
2019-04-20T12:30:51.377Z,4.62
2019-04-20T12:33:22.118Z,3.45
2019-04-20T12:35:52.505Z,3.40
2019-04-20T12:38:23.148Z,3.47
2019-04-20T12:40:53.456Z,3.30
2019-04-20T12:43:23.695Z,4.15
2019-04-20T12:45:53.937Z,3.17
2019-04-20T12:48:23.999Z,3.17
2019-04-20T12:50:55.329Z,3.17
2019-04-20T12:53:26.530Z,3.90
2019-04-20T12:55:56.911Z,3.50
2019-04-20T12:58:28.331Z,3.50
2019-04-20T13:01:00.525Z,3.45
2019-04-20T13:03:31.758Z,3.40
2019-04-20T13:06:03.723Z,3.12
2019-04-20T13:11:06.626Z,3.27
2019-04-20T13:13:41.009Z,3.75
2019-04-20T13:16:12.763Z,3.62
2019-04-20T13:18:45.426Z,4.03
2019-04-20T13:21:16.750Z,3.42
2019-04-20T13:23:47.315Z,3.20
2019-04-20T13:26:17.531Z,3.77
2019-04-20T13:28:48.747Z,3.85
2019-04-20T13:31:19.918Z,3.60
2019-04-20T13:33:51.696Z,4.55
2019-04-20T13:36:22.035Z,4.00
2019-04-20T13:38:52.520Z,3.62
2019-04-20T13:41:24.010Z,3.17
2019-04-20T13:43:57.699Z,3.20
2019-04-20T13:46:27.141Z,3.70
2019-04-20T13:48:57.417Z,3.37
2019-04-20T13:51:28.721Z,3.75
2019-04-20T13:53:59.423Z,2.83
2019-04-20T13:56:30.144Z,2.75
2019-04-20T13:59:01.905Z,3.90
2019-04-20T14:01:46.642Z,3.00
2019-04-20T14:04:18.871Z,2.98
2019-04-20T14:06:51.193Z,2.75
2019-04-20T14:09:23.406Z,3.72
2019-04-20T14:11:53.907Z,3.40
2019-04-20T14:14:25.332Z,3.80
2019-04-20T14:16:56.926Z,2.85
2019-04-20T14:19:27.497Z,4.08
2019-04-20T14:21:57.565Z,3.25
2019-04-20T14:24:28.907Z,3.27
2019-04-20T14:26:59.060Z,3.45
2019-04-20T14:29:30.556Z,4.00
2019-04-20T14:32:03.574Z,5.00
2019-04-20T14:34:33.115Z,3.15
2019-04-20T14:37:04.668Z,3.00
2019-04-20T14:39:36.297Z,3.90
2019-04-20T14:42:06.770Z,2.75
2019-04-20T14:44:37.498Z,3.35
2019-04-20T14:47:07.731Z,3.55
2019-04-20T14:49:38.797Z,3.02
2019-04-20T14:52:09.216Z,4.00
2019-04-20T14:54:39.481Z,3.47
2019-04-20T14:57:09.680Z,4.72
2019-04-20T14:59:43.431Z,3.08
2019-04-20T15:02:15.494Z,4.00
2019-04-20T15:07:15.588Z,3.72
2019-04-20T15:09:46.760Z,3.05
2019-04-20T15:12:17.180Z,3.02
2019-04-20T15:14:47.372Z,2.92
2019-04-20T15:17:19.417Z,3.52
2019-04-20T15:19:57.691Z,3.40
2019-04-20T15:22:39.239Z,3.47
2019-04-20T15:25:09.940Z,3.37
2019-04-20T15:27:44.003Z,2.95
2019-04-20T15:30:12.169Z,3.17
2019-04-20T15:32:43.085Z,3.80
2019-04-20T15:35:17.405Z,3.80
2019-04-20T15:37:45.164Z,4.67
2019-04-20T15:40:15.313Z,4.30
2019-04-20T15:42:56.108Z,3.90
2019-04-20T15:45:17.221Z,3.62
2019-04-20T15:47:47.986Z,3.85
2019-04-20T15:50:18.214Z,4.55
2019-04-20T15:52:51.063Z,5.08
2019-04-20T15:55:25.490Z,4.90
2019-04-20T15:57:53.324Z,4.05
2019-04-20T16:00:24.581Z,3.17
2019-04-20T16:03:05.677Z,3.80
2019-04-20T16:05:38.592Z,4.00
2019-04-20T16:08:23.799Z,4.28
2019-04-20T16:10:55.427Z,5.53
2019-04-20T16:13:32.029Z,4.75
2019-04-20T16:15:58.067Z,6.50
2019-04-20T16:18:28.187Z,7.90
2019-04-20T16:21:07.232Z,6.90
2019-04-20T16:23:32.479Z,6.67
2019-04-20T16:26:05.811Z,5.95
2019-04-20T16:28:37.538Z,5.87
2019-04-20T16:31:10.649Z,6.12
2019-04-20T16:33:39.766Z,6.10
2019-04-20T16:36:10.306Z,7.70
2019-04-20T16:38:41.850Z,7.42
2019-04-20T16:41:14.544Z,8.25
2019-04-20T16:43:46.412Z,9.73
2019-04-20T16:46:19.887Z,8.98
2019-04-20T16:48:48.541Z,9.80
2019-04-20T16:51:19.240Z,10.23
2019-04-20T16:53:49.843Z,9.10
2019-04-20T16:56:22.279Z,9.68
2019-04-20T16:58:54.744Z,9.28
2019-04-20T17:01:25.515Z,7.85
2019-04-20T17:06:27.709Z,8.30
2019-04-20T17:08:58.758Z,8.53
2019-04-20T17:11:29.983Z,9.45
2019-04-20T17:14:02.143Z,13.10
2019-04-20T17:16:33.431Z,17.87
2019-04-20T17:19:03.853Z,18.87
2019-04-20T17:21:35.601Z,18.00
2019-04-20T17:24:07.217Z,18.20
2019-04-20T17:26:43.255Z,16.42
2019-04-20T17:29:17.867Z,14.53
2019-04-20T17:32:05.498Z,14.35
2019-04-20T17:34:46.859Z,14.50
2019-04-20T17:37:08.826Z,15.40
2019-04-20T17:40:02.872Z,17.32
2019-04-20T17:42:23.959Z,16.07
2019-04-20T17:44:52.963Z,15.63
2019-04-20T17:47:30.296Z,16.10
2019-04-20T17:50:06.551Z,18.52
2019-04-20T17:52:42.833Z,17.23
2019-04-20T17:55:01.751Z,19.85
2019-04-20T17:57:33.146Z,27.45
2019-04-20T18:00:13.764Z,27.40
2019-04-20T18:02:59.324Z,28.55
2019-04-20T18:05:46.600Z,34.18
2019-04-20T18:08:12.075Z,33.73
2019-04-20T18:10:36.410Z,35.45
2019-04-20T18:15:43.852Z,38.15
2019-04-20T18:18:28.752Z,37.65
2019-04-20T18:20:52.650Z,35.35
2019-04-20T18:23:29.335Z,36.35
2019-04-20T18:26:10.784Z,39.42
2019-04-20T18:28:44.160Z,39.78
2019-04-20T18:31:09.179Z,38.23
2019-04-20T18:33:42.498Z,47.67
2019-04-20T18:36:23.354Z,48.30
2019-04-20T18:38:54.243Z,47.75
2019-04-20T18:41:28.299Z,46.85
2019-04-20T18:43:55.409Z,47.60
2019-04-20T18:46:39.250Z,45.75
2019-04-20T18:49:10.315Z,51.53
2019-04-20T18:54:05.629Z,48.52
2019-04-20T18:56:34.181Z,43.33
2019-04-20T18:59:03.124Z,42.88
2019-04-20T19:01:37.782Z,37.15
2019-04-20T19:04:06.089Z,30.97
2019-04-20T19:06:36.290Z,33.18
2019-04-20T19:09:09.403Z,31.57
2019-04-20T19:11:43.695Z,41.13
2019-04-20T19:14:34.506Z,37.03
2019-04-20T19:17:09.029Z,43.58
2019-04-20T19:19:42.399Z,39.18
2019-04-20T19:22:10.065Z,37.90
2019-04-20T19:24:42.865Z,37.35
2019-04-20T19:27:15.724Z,38.15
2019-04-20T19:29:55.365Z,39.45
2019-04-20T19:32:30.355Z,38.40
2019-04-20T19:35:00.602Z,36.88
2019-04-20T19:37:28.548Z,35.38
2019-04-20T19:42:39.766Z,38.17
2019-04-20T19:45:27.385Z,35.78
2019-04-20T19:50:32.777Z,33.15
2019-04-20T19:52:56.182Z,34.23
2019-04-20T19:55:26.009Z,33.67
2019-04-20T20:00:11.457Z,29.98
2019-04-20T20:02:43.496Z,31.73
2019-04-20T20:05:16.331Z,30.08
2019-04-20T20:07:50.831Z,33.78
2019-04-20T20:10:22.008Z,32.03
2019-04-20T20:15:27.887Z,34.13
2019-04-20T20:18:11.026Z,35.25
2019-04-20T20:20:47.444Z,33.92
2019-04-20T20:23:00.043Z,31.48
2019-04-20T20:25:34.318Z,31.57
2019-04-20T20:28:14.561Z,29.82
2019-04-20T20:30:41.507Z,34.92
2019-04-20T20:33:23.788Z,34.98
2019-04-20T20:35:45.433Z,37.10
2019-04-20T20:38:21.548Z,37.38
2019-04-20T20:40:52.416Z,37.48
2019-04-20T20:43:22.746Z,37.90
2019-04-20T20:45:56.666Z,66.20
2019-04-20T20:48:31.372Z,71.65
2019-04-20T20:51:07.743Z,72.62
2019-04-20T20:53:36.248Z,69.35
2019-04-20T20:56:01.942Z,72.47
2019-04-20T20:58:40.664Z,71.47
2019-04-20T21:01:03.715Z,63.68
2019-04-20T21:03:31.238Z,56.92
2019-04-20T21:05:59.949Z,46.18
2019-04-20T21:08:31.488Z,38.10
2019-04-20T21:11:04.847Z,35.35
2019-04-20T21:13:39.491Z,33.40
2019-04-20T21:16:12.020Z,28.83
2019-04-20T21:18:54.695Z,27.48
2019-04-20T21:21:22.638Z,25.00
2019-04-20T21:23:48.139Z,21.70
2019-04-20T21:26:20.255Z,21.33
2019-04-20T21:28:44.175Z,20.65
2019-04-20T21:31:20.393Z,19.00
2019-04-20T21:33:47.009Z,18.32
2019-04-20T21:36:19.165Z,16.55
2019-04-20T21:38:50.029Z,16.20
2019-04-20T21:41:23.661Z,15.00
2019-04-20T21:43:52.318Z,14.78
2019-04-20T21:46:22.858Z,14.28
2019-04-20T21:49:08.142Z,14.33
2019-04-20T21:51:37.070Z,14.40
2019-04-20T21:53:58.739Z,13.43
2019-04-20T21:56:28.542Z,14.03
2019-04-20T21:59:02.465Z,15.20
2019-04-20T22:01:38.820Z,17.10
2019-04-20T22:04:02.702Z,16.87
2019-04-20T22:09:07.377Z,15.55
2019-04-20T22:11:39.989Z,15.25
2019-04-20T22:14:18.460Z,15.32
2019-04-20T22:16:49.039Z,15.72
2019-04-20T22:19:28.618Z,15.75
2019-04-20T22:22:00.584Z,14.58
2019-04-20T22:24:33.089Z,13.18
2019-04-20T22:27:03.338Z,13.90
2019-04-20T22:29:22.231Z,14.03
2019-04-20T22:31:58.973Z,13.18
2019-04-20T22:34:26.095Z,12.75
2019-04-20T22:36:56.031Z,12.78
2019-04-20T22:39:32.207Z,13.50
2019-04-20T22:42:05.639Z,12.98
2019-04-20T22:44:34.210Z,12.55
2019-04-20T22:47:05.452Z,13.15
2019-04-20T22:49:50.053Z,13.58
2019-04-20T22:52:26.567Z,11.97
2019-04-20T22:54:55.231Z,14.10
2019-04-20T22:57:28.011Z,12.63
2019-04-20T22:59:50.548Z,11.50
2019-04-20T23:02:16.458Z,10.85
2019-04-20T23:04:47.099Z,12.03
2019-04-20T23:07:17.189Z,10.65
2019-04-20T23:09:54.386Z,11.33
2019-04-20T23:12:23.154Z,12.18
2019-04-20T23:14:52.297Z,12.95
2019-04-20T23:17:29.636Z,11.13
2019-04-20T23:19:58.216Z,10.80
2019-04-20T23:22:33.853Z,11.73
2019-04-20T23:24:59.383Z,11.48
2019-04-20T23:30:05.907Z,9.88
2019-04-20T23:32:33.829Z,9.55
2019-04-20T23:35:11.880Z,11.45
2019-04-20T23:37:39.984Z,10.70
2019-04-20T23:40:13.017Z,11.12
2019-04-20T23:42:45.796Z,10.78
2019-04-20T23:45:16.930Z,11.35
2019-04-20T23:47:55.704Z,9.73
2019-04-20T23:50:44.883Z,11.05
2019-04-20T23:53:13.913Z,10.15
2019-04-20T23:55:27.746Z,11.35
2019-04-20T23:58:03.222Z,11.12
